createdAt,value
2019-02-14T00:00:36.192Z,1007.96
2019-02-14T00:01:36.183Z,1007.96
2019-02-14T00:02:36.168Z,1007.95
2019-02-14T00:03:36.157Z,1007.95
2019-02-14T00:04:36.169Z,1007.95
2019-02-14T00:05:36.157Z,1007.93
2019-02-14T00:06:36.124Z,1007.92
2019-02-14T00:07:36.114Z,1007.89
2019-02-14T00:08:36.104Z,1007.90
2019-02-14T00:09:36.115Z,1007.92
2019-02-14T00:10:36.083Z,1007.93
2019-02-14T00:11:36.077Z,1007.90
2019-02-14T00:12:36.072Z,1007.95
2019-02-14T00:13:36.052Z,1007.90
2019-02-14T00:14:36.065Z,1007.90
2019-02-14T00:15:36.029Z,1007.89
2019-02-14T00:16:36.018Z,1007.89
2019-02-14T00:17:36.013Z,1007.88
2019-02-14T00:18:35.998Z,1007.92
2019-02-14T00:19:36.007Z,1007.91
2019-02-14T00:20:35.976Z,1007.90
2019-02-14T00:21:35.963Z,1007.84
2019-02-14T00:22:35.953Z,1007.86
2019-02-14T00:23:35.966Z,1007.88
2019-02-14T00:24:35.975Z,1007.80
2019-02-14T00:25:35.925Z,1007.85
2019-02-14T00:26:35.911Z,1007.83
2019-02-14T00:27:35.899Z,1007.81
2019-02-14T00:28:35.889Z,1007.80
2019-02-14T00:29:35.909Z,1007.81
2019-02-14T00:30:35.867Z,1007.82
2019-02-14T00:31:35.859Z,1007.80
2019-02-14T00:32:35.846Z,1007.84
2019-02-14T00:33:35.835Z,1007.82
2019-02-14T00:34:35.854Z,1007.83
2019-02-14T00:35:35.818Z,1007.83
2019-02-14T00:36:35.806Z,1007.89
2019-02-14T00:37:35.793Z,1007.86
2019-02-14T00:38:35.782Z,1007.86
2019-02-14T00:39:35.792Z,1007.87
2019-02-14T00:40:35.770Z,1007.91
2019-02-14T00:41:35.750Z,1007.88
2019-02-14T00:42:35.736Z,1007.87
2019-02-14T00:43:35.727Z,1007.90
2019-02-14T00:44:35.739Z,1007.89
2019-02-14T00:45:35.705Z,1007.92
2019-02-14T00:46:35.697Z,1007.89
2019-02-14T00:47:35.682Z,1007.90
2019-02-14T00:48:35.669Z,1007.90
2019-02-14T00:49:35.683Z,1007.92
2019-02-14T00:50:35.649Z,1007.91
2019-02-14T00:51:35.644Z,1007.89
2019-02-14T00:52:35.642Z,1007.91
2019-02-14T00:53:35.620Z,1007.89
2019-02-14T00:54:35.626Z,1007.87
2019-02-14T00:55:35.606Z,1007.95
2019-02-14T00:56:35.592Z,1007.89
2019-02-14T00:57:35.572Z,1007.87
2019-02-14T00:58:35.597Z,1007.87
2019-02-14T00:59:35.577Z,1007.87
2019-02-14T01:00:35.541Z,1007.85
2019-02-14T01:01:35.529Z,1007.85
2019-02-14T01:02:35.518Z,1007.87
2019-02-14T01:03:35.507Z,1007.84
2019-02-14T01:04:35.524Z,1007.81
2019-02-14T01:05:35.485Z,1007.84
2019-02-14T01:06:35.475Z,1007.85
2019-02-14T01:07:35.461Z,1007.86
2019-02-14T01:08:35.450Z,1007.87
2019-02-14T01:09:35.461Z,1007.93
2019-02-14T01:10:35.454Z,1007.90
2019-02-14T01:11:35.416Z,1007.89
2019-02-14T01:12:35.405Z,1007.91
2019-02-14T01:13:35.398Z,1007.87
2019-02-14T01:14:35.407Z,1007.88
2019-02-14T01:15:35.373Z,1007.88
2019-02-14T01:16:35.370Z,1007.90
2019-02-14T01:17:35.355Z,1007.92
2019-02-14T01:18:35.340Z,1007.92
2019-02-14T01:19:35.393Z,1007.90
2019-02-14T01:20:35.321Z,1007.89
2019-02-14T01:21:35.306Z,1007.86
2019-02-14T01:22:35.302Z,1007.89
2019-02-14T01:23:35.293Z,1007.88
2019-02-14T01:24:35.295Z,1007.87
2019-02-14T01:25:35.265Z,1007.84
2019-02-14T01:26:35.252Z,1007.84
2019-02-14T01:27:35.240Z,1007.88
2019-02-14T01:28:35.230Z,1007.84
2019-02-14T01:29:35.257Z,1007.84
2019-02-14T01:30:35.209Z,1007.78
2019-02-14T01:31:35.198Z,1007.83
2019-02-14T01:32:35.186Z,1007.79
2019-02-14T01:33:35.176Z,1007.79
2019-02-14T01:34:35.189Z,1007.81
2019-02-14T01:35:41.839Z,1007.84
2019-02-14T01:36:36.143Z,1007.82
2019-02-14T01:37:35.134Z,1007.82
2019-02-14T01:38:35.122Z,1007.85
2019-02-14T01:39:35.150Z,1007.83
2019-02-14T01:40:35.100Z,1007.77
2019-02-14T01:41:35.110Z,1007.80
2019-02-14T01:42:35.079Z,1007.76
2019-02-14T01:43:35.068Z,1007.78
2019-02-14T01:44:35.058Z,1007.74
2019-02-14T01:45:35.076Z,1007.79
2019-02-14T01:46:35.037Z,1007.74
2019-02-14T01:47:35.031Z,1007.77
2019-02-14T01:48:35.013Z,1007.76
2019-02-14T01:49:35.005Z,1007.77
2019-02-14T01:50:35.016Z,1007.79
2019-02-14T01:51:34.986Z,1007.81
2019-02-14T01:52:34.973Z,1007.82
2019-02-14T01:53:34.987Z,1007.78
2019-02-14T01:54:34.952Z,1007.79
2019-02-14T01:55:34.968Z,1007.81
2019-02-14T01:56:34.930Z,1007.86
2019-02-14T01:57:34.919Z,1007.86
2019-02-14T01:58:34.910Z,1007.88
2019-02-14T01:59:34.922Z,1007.85
2019-02-14T02:00:34.918Z,1007.89
2019-02-14T02:01:34.889Z,1007.87
2019-02-14T02:02:34.865Z,1007.92
2019-02-14T02:03:34.851Z,1007.93
2019-02-14T02:04:34.846Z,1007.87
2019-02-14T02:05:34.857Z,1007.89
2019-02-14T02:06:34.821Z,1007.86
2019-02-14T02:07:34.809Z,1007.84
2019-02-14T02:08:34.807Z,1007.85
2019-02-14T02:09:34.792Z,1007.79
2019-02-14T02:10:34.805Z,1007.79
2019-02-14T02:11:34.766Z,1007.79
2019-02-14T02:12:34.767Z,1007.75
2019-02-14T02:13:34.743Z,1007.80
2019-02-14T02:14:34.732Z,1007.78
2019-02-14T02:15:34.745Z,1007.81
2019-02-14T02:16:34.710Z,1007.82
2019-02-14T02:17:34.699Z,1007.80
2019-02-14T02:18:34.707Z,1007.80
2019-02-14T02:19:34.679Z,1007.78
2019-02-14T02:20:34.689Z,1007.79
2019-02-14T02:21:34.655Z,1007.79
2019-02-14T02:22:34.667Z,1007.75
2019-02-14T02:23:34.634Z,1007.68
2019-02-14T02:24:34.642Z,1007.71
2019-02-14T02:25:34.633Z,1007.68
2019-02-14T02:26:34.601Z,1007.70
2019-02-14T02:27:34.590Z,1007.65
2019-02-14T02:28:34.582Z,1007.70
2019-02-14T02:29:34.570Z,1007.70
2019-02-14T02:30:34.598Z,1007.71
2019-02-14T02:31:34.549Z,1007.67
2019-02-14T02:32:34.539Z,1007.74
2019-02-14T02:33:34.528Z,1007.69
2019-02-14T02:34:34.515Z,1007.69
2019-02-14T02:35:34.529Z,1007.68
2019-02-14T02:36:34.511Z,1007.69
2019-02-14T02:37:34.488Z,1007.72
2019-02-14T02:38:34.476Z,1007.72
2019-02-14T02:39:34.465Z,1007.76
2019-02-14T02:40:34.476Z,1007.75
2019-02-14T02:41:34.440Z,1007.75
2019-02-14T02:42:34.435Z,1007.71
2019-02-14T02:43:34.420Z,1007.71
2019-02-14T02:44:34.407Z,1007.73
2019-02-14T02:45:34.420Z,1007.68
2019-02-14T02:46:34.388Z,1007.68
2019-02-14T02:47:34.377Z,1007.67
2019-02-14T02:48:34.377Z,1007.65
2019-02-14T02:49:34.354Z,1007.72
2019-02-14T02:50:34.370Z,1007.73
2019-02-14T02:51:34.333Z,1007.71
2019-02-14T02:52:34.323Z,1007.71
2019-02-14T02:53:34.313Z,1007.72
2019-02-14T02:54:34.319Z,1007.70
2019-02-14T02:55:34.313Z,1007.68
2019-02-14T02:56:34.282Z,1007.66
2019-02-14T02:57:34.275Z,1007.64
2019-02-14T02:58:34.259Z,1007.65
2019-02-14T02:59:34.249Z,1007.64
2019-02-14T03:00:34.302Z,1007.65
2019-02-14T03:01:34.227Z,1007.65
2019-02-14T03:02:34.222Z,1007.64
2019-02-14T03:03:34.205Z,1007.67
2019-02-14T03:04:34.194Z,1007.72
2019-02-14T03:05:34.207Z,1007.64
2019-02-14T03:06:34.188Z,1007.63
2019-02-14T03:07:34.163Z,1007.62
2019-02-14T03:08:34.154Z,1007.64
2019-02-14T03:09:34.142Z,1007.66
2019-02-14T03:10:34.152Z,1007.66
2019-02-14T03:11:34.124Z,1007.69
2019-02-14T03:12:34.113Z,1007.67
2019-02-14T03:13:34.109Z,1007.65
2019-02-14T03:14:34.091Z,1007.60
2019-02-14T03:15:34.104Z,1007.62
2019-02-14T03:16:34.067Z,1007.66
2019-02-14T03:17:34.057Z,1007.65
2019-02-14T03:18:34.045Z,1007.70
2019-02-14T03:19:34.052Z,1007.63
2019-02-14T03:20:34.060Z,1007.65
2019-02-14T03:21:34.013Z,1007.65
2019-02-14T03:22:34.005Z,1007.67
2019-02-14T03:23:33.992Z,1007.67
2019-02-14T03:24:33.982Z,1007.66
2019-02-14T03:25:35.660Z,1007.69
2019-02-14T03:26:33.985Z,1007.66
2019-02-14T03:27:33.955Z,1007.70
2019-02-14T03:28:33.939Z,1007.71
2019-02-14T03:29:33.931Z,1007.71
2019-02-14T03:30:33.920Z,1007.71
2019-02-14T03:31:33.943Z,1007.70
2019-02-14T03:32:35.210Z,1007.73
2019-02-14T03:33:33.895Z,1007.71
2019-02-14T03:34:33.876Z,1007.72
2019-02-14T03:35:33.866Z,1007.69
2019-02-14T03:36:33.879Z,1007.64
2019-02-14T03:37:33.844Z,1007.71
2019-02-14T03:38:33.844Z,1007.67
2019-02-14T03:39:33.825Z,1007.71
2019-02-14T03:40:33.817Z,1007.67
2019-02-14T03:41:33.825Z,1007.65
2019-02-14T03:42:33.793Z,1007.66
2019-02-14T03:43:33.779Z,1007.70
2019-02-14T03:44:33.777Z,1007.71
2019-02-14T03:45:33.759Z,1007.70
2019-02-14T03:46:33.777Z,1007.70
2019-02-14T03:47:33.735Z,1007.70
2019-02-14T03:48:33.724Z,1007.72
2019-02-14T03:49:33.717Z,1007.72
2019-02-14T03:50:33.716Z,1007.71
2019-02-14T03:51:33.720Z,1007.70
2019-02-14T03:52:33.684Z,1007.70
2019-02-14T03:53:33.669Z,1007.73
2019-02-14T03:54:33.660Z,1007.71
2019-02-14T03:55:33.652Z,1007.72
2019-02-14T03:56:33.682Z,1007.74
2019-02-14T03:57:33.626Z,1007.75
2019-02-14T03:58:33.615Z,1007.74
2019-02-14T03:59:33.604Z,1007.77
2019-02-14T04:00:33.593Z,1007.77
2019-02-14T04:01:33.606Z,1007.77
2019-02-14T04:02:33.582Z,1007.80
2019-02-14T04:03:33.563Z,1007.77
2019-02-14T04:04:33.551Z,1007.79
2019-02-14T04:05:33.538Z,1007.82
2019-02-14T04:06:33.556Z,1007.81
2019-02-14T04:07:33.519Z,1007.83
2019-02-14T04:08:33.554Z,1007.81
2019-02-14T04:09:33.498Z,1007.85
2019-02-14T04:10:33.488Z,1007.82
2019-02-14T04:11:33.498Z,1007.85
2019-02-14T04:12:33.462Z,1007.88
2019-02-14T04:13:33.456Z,1007.88
2019-02-14T04:14:33.451Z,1007.89
2019-02-14T04:15:33.431Z,1007.89
2019-02-14T04:16:33.443Z,1007.91
2019-02-14T04:17:33.409Z,1007.91
2019-02-14T04:18:33.400Z,1007.88
2019-02-14T04:19:33.388Z,1007.91
2019-02-14T04:20:33.391Z,1007.90
2019-02-14T04:21:33.388Z,1007.90
2019-02-14T04:22:33.355Z,1007.84
2019-02-14T04:23:33.344Z,1007.85
2019-02-14T04:24:33.334Z,1007.86
2019-02-14T04:25:33.325Z,1007.85
2019-02-14T04:26:33.343Z,1007.88
2019-02-14T04:27:33.301Z,1007.96
2019-02-14T04:28:33.294Z,1007.99
2019-02-14T04:29:33.283Z,1007.95
2019-02-14T04:30:33.271Z,1007.99
2019-02-14T04:31:33.283Z,1008.02
2019-02-14T04:32:33.255Z,1008.03
2019-02-14T04:33:33.240Z,1008.06
2019-02-14T04:34:33.227Z,1008.06
2019-02-14T04:35:33.216Z,1008.06
2019-02-14T04:36:36.110Z,1008.07
2019-02-14T04:37:33.195Z,1008.07
2019-02-14T04:38:33.192Z,1008.13
2019-02-14T04:39:33.172Z,1008.11
2019-02-14T04:40:33.824Z,1008.11
2019-02-14T04:41:33.175Z,1008.16
2019-02-14T04:42:33.142Z,1008.17
2019-02-14T04:43:33.131Z,1008.16
2019-02-14T04:44:33.126Z,1008.12
2019-02-14T04:45:33.109Z,1008.11
2019-02-14T04:46:33.127Z,1008.10
2019-02-14T04:47:33.089Z,1008.10
2019-02-14T04:48:33.078Z,1008.12
2019-02-14T04:49:33.065Z,1008.10
2019-02-14T04:50:33.075Z,1008.12
2019-02-14T04:51:33.065Z,1008.14
2019-02-14T04:52:33.032Z,1008.09
2019-02-14T04:53:33.020Z,1008.09
2019-02-14T04:54:33.012Z,1008.06
2019-02-14T04:55:33.000Z,1008.05
2019-02-14T04:56:33.022Z,1008.06
2019-02-14T04:57:32.977Z,1008.08
2019-02-14T04:58:32.968Z,1008.09
2019-02-14T04:59:32.957Z,1008.11
2019-02-14T05:00:32.945Z,1008.10
2019-02-14T05:01:32.955Z,1008.10
2019-02-14T05:02:32.935Z,1008.10
2019-02-14T05:03:32.924Z,1008.13
2019-02-14T05:04:32.901Z,1008.10
2019-02-14T05:05:32.891Z,1008.11
2019-02-14T05:06:32.905Z,1008.11
2019-02-14T05:07:32.869Z,1008.10
2019-02-14T05:08:32.874Z,1008.09
2019-02-14T05:09:32.849Z,1008.07
2019-02-14T05:10:32.840Z,1008.12
2019-02-14T05:11:32.828Z,1008.13
2019-02-14T05:12:32.838Z,1008.11
2019-02-14T05:13:32.806Z,1008.14
2019-02-14T05:14:32.801Z,1008.10
2019-02-14T05:15:32.785Z,1008.12
2019-02-14T05:16:32.774Z,1008.09
2019-02-14T05:17:33.907Z,1008.11
2019-02-14T05:18:32.752Z,1008.09
2019-02-14T05:19:32.751Z,1008.14
2019-02-14T05:20:32.732Z,1008.11
2019-02-14T05:21:32.719Z,1008.09
2019-02-14T05:22:32.732Z,1008.07
2019-02-14T05:23:32.696Z,1008.11
2019-02-14T05:24:32.686Z,1008.04
2019-02-14T05:25:32.684Z,1008.06
2019-02-14T05:26:32.668Z,1008.05
2019-02-14T05:27:32.674Z,1008.01
2019-02-14T05:28:32.642Z,1008.09
2019-02-14T05:29:32.637Z,1008.07
2019-02-14T05:30:32.620Z,1008.07
2019-02-14T05:31:32.619Z,1008.11
2019-02-14T05:32:32.622Z,1008.08
2019-02-14T05:33:32.587Z,1008.08
2019-02-14T05:34:32.579Z,1008.14
2019-02-14T05:35:32.568Z,1008.12
2019-02-14T05:36:32.554Z,1008.11
2019-02-14T05:37:32.582Z,1008.10
2019-02-14T05:38:32.534Z,1008.09
2019-02-14T05:39:32.524Z,1008.09
2019-02-14T05:40:32.514Z,1008.12
2019-02-14T05:41:32.500Z,1008.09
2019-02-14T05:42:32.514Z,1008.08
2019-02-14T05:43:32.503Z,1008.08
2019-02-14T05:44:32.467Z,1008.04
2019-02-14T05:45:32.458Z,1008.03
2019-02-14T05:46:32.445Z,1008.08
2019-02-14T05:47:32.458Z,1008.13
2019-02-14T05:48:32.426Z,1008.07
2019-02-14T05:49:32.425Z,1008.07
2019-02-14T05:50:32.402Z,1008.06
2019-02-14T05:51:32.392Z,1008.06
2019-02-14T05:52:32.408Z,1008.07
2019-02-14T05:53:32.367Z,1008.03
2019-02-14T05:54:32.358Z,1008.06
2019-02-14T05:55:32.363Z,1008.10
2019-02-14T05:56:32.335Z,1008.10
2019-02-14T05:57:32.351Z,1008.14
2019-02-14T05:58:32.315Z,1008.16
2019-02-14T05:59:32.310Z,1008.17
2019-02-14T06:00:32.291Z,1008.21
2019-02-14T06:01:32.296Z,1008.18
2019-02-14T06:02:32.320Z,1008.16
2019-02-14T06:03:32.263Z,1008.18
2019-02-14T06:04:32.255Z,1008.21
2019-02-14T06:05:32.237Z,1008.21
2019-02-14T06:06:32.226Z,1008.24
2019-02-14T06:07:32.249Z,1008.29
2019-02-14T06:08:33.233Z,1008.27
2019-02-14T06:09:32.194Z,1008.24
2019-02-14T06:10:32.188Z,1008.31
2019-02-14T06:11:32.172Z,1008.28
2019-02-14T06:12:32.182Z,1008.29
2019-02-14T06:13:32.160Z,1008.30
2019-02-14T06:14:32.140Z,1008.28
2019-02-14T06:15:32.129Z,1008.24
2019-02-14T06:16:32.117Z,1008.22
2019-02-14T06:17:32.129Z,1008.26
2019-02-14T06:18:32.097Z,1008.25
2019-02-14T06:19:32.108Z,1008.34
2019-02-14T06:20:32.076Z,1008.33
2019-02-14T06:21:32.064Z,1008.31
2019-02-14T06:22:32.074Z,1008.30
2019-02-14T06:23:32.040Z,1008.34
2019-02-14T06:24:32.030Z,1008.37
2019-02-14T06:25:32.045Z,1008.35
2019-02-14T06:26:32.018Z,1008.38
2019-02-14T06:27:32.021Z,1008.43
2019-02-14T06:28:31.988Z,1008.43
2019-02-14T06:29:32.010Z,1008.41
2019-02-14T06:30:31.966Z,1008.46
2019-02-14T06:31:31.968Z,1008.47
2019-02-14T06:32:31.966Z,1008.47
2019-02-14T06:33:31.931Z,1008.53
2019-02-14T06:34:31.930Z,1008.55
2019-02-14T06:35:31.912Z,1008.57
2019-02-14T06:36:31.899Z,1008.58
2019-02-14T06:37:31.932Z,1008.51
2019-02-14T06:38:31.887Z,1008.57
2019-02-14T06:39:31.873Z,1008.58
2019-02-14T06:40:31.855Z,1008.57
2019-02-14T06:41:31.845Z,1008.58
2019-02-14T06:42:31.855Z,1008.59
2019-02-14T06:43:31.837Z,1008.61
2019-02-14T06:44:31.812Z,1008.56
2019-02-14T06:45:31.813Z,1008.58
2019-02-14T06:46:31.807Z,1008.59
2019-02-14T06:47:31.814Z,1008.64
2019-02-14T06:48:31.767Z,1008.61
2019-02-14T06:49:31.758Z,1008.66
2019-02-14T06:50:34.773Z,1008.64
2019-02-14T06:51:31.742Z,1008.63
2019-02-14T06:52:31.725Z,1008.59
2019-02-14T06:53:31.735Z,1008.61
2019-02-14T06:54:31.703Z,1008.61
2019-02-14T06:55:31.692Z,1008.64
2019-02-14T06:56:31.681Z,1008.61
2019-02-14T06:57:31.674Z,1008.60
2019-02-14T06:58:31.702Z,1008.65
2019-02-14T06:59:31.650Z,1008.67
2019-02-14T07:00:31.642Z,1008.65
2019-02-14T07:01:31.627Z,1008.68
2019-02-14T07:02:31.616Z,1008.68
2019-02-14T07:03:31.629Z,1008.69
2019-02-14T07:04:31.641Z,1008.70
2019-02-14T07:05:31.588Z,1008.72
2019-02-14T07:06:31.574Z,1008.72
2019-02-14T07:07:31.563Z,1008.73
2019-02-14T07:08:31.574Z,1008.76
2019-02-14T07:09:31.540Z,1008.71
2019-02-14T07:10:31.535Z,1008.74
2019-02-14T07:11:31.523Z,1008.77
2019-02-14T07:12:31.512Z,1008.76
2019-02-14T07:13:31.522Z,1008.75
2019-02-14T07:14:31.485Z,1008.73
2019-02-14T07:15:31.478Z,1008.77
2019-02-14T07:16:31.475Z,1008.79
2019-02-14T07:17:31.467Z,1008.79
2019-02-14T07:18:31.467Z,1008.76
2019-02-14T07:19:31.432Z,1008.83
2019-02-14T07:20:31.423Z,1008.78
2019-02-14T07:21:31.431Z,1008.82
2019-02-14T07:22:31.399Z,1008.86
2019-02-14T07:23:31.447Z,1008.85
2019-02-14T07:24:31.394Z,1008.81
2019-02-14T07:25:31.369Z,1008.80
2019-02-14T07:26:31.379Z,1008.86
2019-02-14T07:27:31.346Z,1008.86
2019-02-14T07:28:31.355Z,1008.88
2019-02-14T07:29:31.324Z,1008.87
2019-02-14T07:30:31.317Z,1008.90
2019-02-14T07:31:31.335Z,1008.84
2019-02-14T07:32:31.334Z,1008.85
2019-02-14T07:33:31.863Z,1008.80
2019-02-14T07:34:33.349Z,1008.77
2019-02-14T07:35:31.258Z,1008.77
2019-02-14T07:36:31.257Z,1008.79
2019-02-14T07:37:31.236Z,1008.80
2019-02-14T07:38:31.250Z,1008.77
2019-02-14T07:39:31.220Z,1008.82
2019-02-14T07:40:31.232Z,1008.78
2019-02-14T07:41:31.198Z,1008.75
2019-02-14T07:42:31.241Z,1008.76
2019-02-14T07:43:31.200Z,1008.79
2019-02-14T07:44:31.159Z,1008.77
2019-02-14T07:45:31.147Z,1008.71
2019-02-14T07:46:31.143Z,1008.78
2019-02-14T07:47:31.133Z,1008.76
2019-02-14T07:48:31.185Z,1008.75
2019-02-14T07:49:31.113Z,1008.74
2019-02-14T07:50:31.093Z,1008.73
2019-02-14T07:51:31.083Z,1008.69
2019-02-14T07:52:31.070Z,1008.74
2019-02-14T07:53:31.098Z,1008.70
2019-02-14T07:54:31.080Z,1008.73
2019-02-14T07:55:31.036Z,1008.72
2019-02-14T07:56:31.038Z,1008.75
2019-02-14T07:57:31.076Z,1008.77
2019-02-14T07:58:31.157Z,1008.74
2019-02-14T07:59:31.180Z,1008.73
2019-02-14T08:00:31.163Z,1008.65
2019-02-14T08:01:31.020Z,1008.66
2019-02-14T08:02:30.992Z,1008.64
2019-02-14T08:03:30.971Z,1008.62
2019-02-14T08:04:30.956Z,1008.69
2019-02-14T08:05:30.978Z,1008.66
2019-02-14T08:06:31.002Z,1008.66
2019-02-14T08:07:35.872Z,1008.67
2019-02-14T08:08:31.933Z,1008.66
2019-02-14T08:09:30.880Z,1008.64
2019-02-14T08:10:30.871Z,1008.69
2019-02-14T08:11:30.866Z,1008.66
2019-02-14T08:12:30.857Z,1008.61
2019-02-14T08:13:30.863Z,1008.61
2019-02-14T08:14:30.827Z,1008.59
2019-02-14T08:15:30.830Z,1008.64
2019-02-14T08:16:30.803Z,1008.61
2019-02-14T08:17:30.836Z,1008.64
2019-02-14T08:18:30.892Z,1008.60
2019-02-14T08:19:30.773Z,1008.58
2019-02-14T08:20:30.759Z,1008.62
2019-02-14T08:21:31.305Z,1008.54
2019-02-14T08:22:30.759Z,1008.55
2019-02-14T08:23:30.747Z,1008.57
2019-02-14T08:24:30.716Z,1008.54
2019-02-14T08:25:30.758Z,1008.56
2019-02-14T08:26:30.692Z,1008.57
2019-02-14T08:27:30.692Z,1008.56
2019-02-14T08:28:30.698Z,1008.58
2019-02-14T08:29:30.662Z,1008.56
2019-02-14T08:30:30.647Z,1008.57
2019-02-14T08:31:30.638Z,1008.53
2019-02-14T08:32:30.629Z,1008.57
2019-02-14T08:33:30.649Z,1008.58
2019-02-14T08:34:30.603Z,1008.57
2019-02-14T08:35:30.595Z,1008.54
2019-02-14T08:36:30.580Z,1008.44
2019-02-14T08:37:30.570Z,1008.45
2019-02-14T08:38:30.559Z,1008.44
2019-02-14T08:39:30.567Z,1008.49
2019-02-14T08:40:30.537Z,1008.43
2019-02-14T08:41:30.523Z,1008.44
2019-02-14T08:42:30.512Z,1008.47
2019-02-14T08:43:30.504Z,1008.49
2019-02-14T08:44:30.519Z,1008.46
2019-02-14T08:45:30.487Z,1008.48
2019-02-14T08:46:30.492Z,1008.50
2019-02-14T08:47:30.456Z,1008.48
2019-02-14T08:48:30.453Z,1008.44
2019-02-14T08:49:30.465Z,1008.42
2019-02-14T08:50:30.426Z,1008.47
2019-02-14T08:51:30.412Z,1008.49
2019-02-14T08:52:30.402Z,1008.48
2019-02-14T08:53:30.427Z,1008.49
2019-02-14T08:54:30.404Z,1008.45
2019-02-14T08:55:30.375Z,1008.49
2019-02-14T08:56:30.364Z,1008.45
2019-02-14T08:57:30.346Z,1008.46
2019-02-14T08:58:30.358Z,1008.47
2019-02-14T08:59:30.356Z,1008.38
2019-02-14T09:00:30.329Z,1008.39
2019-02-14T09:01:30.304Z,1008.39
2019-02-14T09:02:30.292Z,1008.40
2019-02-14T09:03:30.283Z,1008.40
2019-02-14T09:04:30.291Z,1008.38
2019-02-14T09:05:30.257Z,1008.39
2019-02-14T09:06:30.262Z,1008.46
2019-02-14T09:07:30.233Z,1008.43
2019-02-14T09:08:30.224Z,1008.46
2019-02-14T09:09:30.234Z,1008.40
2019-02-14T09:10:30.200Z,1008.42
2019-02-14T09:11:30.189Z,1008.34
2019-02-14T09:12:30.178Z,1008.40
2019-02-14T09:13:30.168Z,1008.38
2019-02-14T09:14:30.179Z,1008.39
2019-02-14T09:15:30.144Z,1008.37
2019-02-14T09:16:30.139Z,1008.34
2019-02-14T09:17:30.123Z,1008.31
2019-02-14T09:18:30.112Z,1008.33
2019-02-14T09:19:30.174Z,1008.30
2019-02-14T09:20:30.089Z,1008.29
2019-02-14T09:21:30.077Z,1008.30
2019-02-14T09:22:30.069Z,1008.34
2019-02-14T09:23:30.055Z,1008.31
2019-02-14T09:24:30.076Z,1008.32
2019-02-14T09:25:30.032Z,1008.33
2019-02-14T09:26:30.022Z,1008.27
2019-02-14T09:27:30.011Z,1008.29
2019-02-14T09:28:30.002Z,1008.27
2019-02-14T09:29:30.022Z,1008.27
2019-02-14T09:30:29.982Z,1008.24
2019-02-14T09:31:29.966Z,1008.32
2019-02-14T09:32:29.965Z,1008.30
2019-02-14T09:33:29.945Z,1008.32
2019-02-14T09:34:29.976Z,1008.33
2019-02-14T09:35:29.924Z,1008.36
2019-02-14T09:36:29.917Z,1008.36
2019-02-14T09:37:29.903Z,1008.41
2019-02-14T09:38:29.892Z,1008.44
2019-02-14T09:39:29.905Z,1008.42
2019-02-14T09:40:29.871Z,1008.47
2019-02-14T09:41:29.894Z,1008.43
2019-02-14T09:42:29.847Z,1008.44
2019-02-14T09:43:30.252Z,1008.44
2019-02-14T09:44:29.870Z,1008.44
2019-02-14T09:45:29.839Z,1008.42
2019-02-14T09:46:29.806Z,1008.40
2019-02-14T09:47:29.805Z,1008.37
2019-02-14T09:48:29.822Z,1008.37
2019-02-14T09:49:30.052Z,1008.39
2019-02-14T09:50:29.772Z,1008.41
2019-02-14T09:51:29.757Z,1008.41
2019-02-14T09:52:29.784Z,1008.37
2019-02-14T09:53:29.791Z,1008.33
2019-02-14T09:54:29.742Z,1008.37
2019-02-14T09:55:29.742Z,1008.36
2019-02-14T09:56:29.710Z,1008.36
2019-02-14T09:57:29.689Z,1008.29
2019-02-14T09:58:29.688Z,1008.38
2019-02-14T09:59:29.697Z,1008.30
2019-02-14T10:00:29.665Z,1008.35
2019-02-14T10:01:29.681Z,1008.28
2019-02-14T10:02:29.646Z,1008.33
2019-02-14T10:03:29.636Z,1008.34
2019-02-14T10:04:29.740Z,1008.33
2019-02-14T10:05:29.659Z,1008.32
2019-02-14T10:06:36.395Z,1008.30
2019-02-14T10:07:30.580Z,1008.31
2019-02-14T10:08:29.574Z,1008.33
2019-02-14T10:09:30.070Z,1008.33
2019-02-14T10:10:29.614Z,1008.31
2019-02-14T10:11:29.584Z,1008.34
2019-02-14T10:12:29.555Z,1008.33
2019-02-14T10:13:29.522Z,1008.32
2019-02-14T10:14:29.503Z,1008.34
2019-02-14T10:15:29.521Z,1008.33
2019-02-14T10:16:29.486Z,1008.35
2019-02-14T10:17:29.471Z,1008.35
2019-02-14T10:18:29.465Z,1008.34
2019-02-14T10:19:29.452Z,1008.38
2019-02-14T10:20:29.459Z,1008.43
2019-02-14T10:21:29.427Z,1008.37
2019-02-14T10:22:29.417Z,1008.35
2019-02-14T10:23:29.407Z,1008.34
2019-02-14T10:24:29.396Z,1008.34
2019-02-14T10:25:29.406Z,1008.32
2019-02-14T10:26:29.373Z,1008.33
2019-02-14T10:27:29.362Z,1008.34
2019-02-14T10:28:29.354Z,1008.36
2019-02-14T10:29:29.341Z,1008.35
2019-02-14T10:30:29.359Z,1008.38
2019-02-14T10:31:29.342Z,1008.35
2019-02-14T10:32:29.308Z,1008.35
2019-02-14T10:33:29.296Z,1008.35
2019-02-14T10:34:29.291Z,1008.33
2019-02-14T10:35:29.298Z,1008.37
2019-02-14T10:36:29.265Z,1008.34
2019-02-14T10:37:29.263Z,1008.39
2019-02-14T10:38:29.263Z,1008.37
2019-02-14T10:39:29.230Z,1008.39
2019-02-14T10:40:29.389Z,1008.36
2019-02-14T10:41:29.392Z,1008.31
2019-02-14T10:42:29.209Z,1008.31
2019-02-14T10:43:29.221Z,1008.30
2019-02-14T10:44:29.176Z,1008.31
2019-02-14T10:45:29.190Z,1008.33
2019-02-14T10:46:29.156Z,1008.30
2019-02-14T10:47:29.161Z,1008.25
2019-02-14T10:48:29.137Z,1008.27
2019-02-14T10:49:29.123Z,1008.32
2019-02-14T10:50:29.141Z,1008.35
2019-02-14T10:51:29.103Z,1008.34
2019-02-14T10:52:29.095Z,1008.32
2019-02-14T10:53:29.082Z,1008.34
2019-02-14T10:54:29.121Z,1008.31
2019-02-14T10:55:29.170Z,1008.31
2019-02-14T10:56:29.132Z,1008.32
2019-02-14T10:57:29.038Z,1008.24
2019-02-14T10:58:29.026Z,1008.27
2019-02-14T10:59:29.020Z,1008.21
2019-02-14T11:00:29.037Z,1008.25
2019-02-14T11:01:28.993Z,1008.20
2019-02-14T11:02:29.003Z,1008.14
2019-02-14T11:03:28.990Z,1008.14
2019-02-14T11:04:28.959Z,1008.13
2019-02-14T11:05:28.973Z,1008.16
2019-02-14T11:06:28.952Z,1008.17
2019-02-14T11:07:28.970Z,1008.17
2019-02-14T11:08:31.705Z,1008.13
2019-02-14T11:09:28.902Z,1008.15
2019-02-14T11:10:28.914Z,1008.16
2019-02-14T11:11:28.883Z,1008.16
2019-02-14T11:12:28.888Z,1008.16
2019-02-14T11:13:28.862Z,1008.16
2019-02-14T11:14:29.529Z,1008.16
2019-02-14T11:15:28.891Z,1008.11
2019-02-14T11:16:28.827Z,1008.12
2019-02-14T11:17:28.827Z,1008.09
2019-02-14T11:18:28.803Z,1008.09
2019-02-14T11:19:28.792Z,1008.08
2019-02-14T11:20:28.934Z,1008.08
2019-02-14T11:21:28.810Z,1008.03
2019-02-14T11:22:28.780Z,1008.07
2019-02-14T11:23:28.772Z,1008.05
2019-02-14T11:24:28.765Z,1008.06
2019-02-14T11:25:28.792Z,1008.08
2019-02-14T11:26:28.834Z,1008.06
2019-02-14T11:27:28.748Z,1008.12
2019-02-14T11:28:28.735Z,1008.13
2019-02-14T11:29:28.722Z,1008.09
2019-02-14T11:30:28.752Z,1008.11
2019-02-14T11:31:28.672Z,1008.04
2019-02-14T11:32:28.654Z,1008.05
2019-02-14T11:33:28.666Z,1008.04
2019-02-14T11:34:28.643Z,1008.08
2019-02-14T11:35:28.633Z,1008.04
2019-02-14T11:36:28.606Z,1008.10
2019-02-14T11:37:28.694Z,1008.04
2019-02-14T11:38:28.628Z,1008.05
2019-02-14T11:39:28.624Z,1008.08
2019-02-14T11:40:28.655Z,1008.05
2019-02-14T11:41:28.552Z,1008.09
2019-02-14T11:42:30.135Z,1008.07
2019-02-14T11:43:28.545Z,1008.05
2019-02-14T11:44:28.543Z,1008.06
2019-02-14T11:45:28.580Z,1008.06
2019-02-14T11:46:28.511Z,1008.08
2019-02-14T11:47:28.500Z,1008.08
2019-02-14T11:48:28.509Z,1008.07
2019-02-14T11:49:28.474Z,1008.03
2019-02-14T11:50:28.573Z,1007.97
2019-02-14T11:51:28.449Z,1008.01
2019-02-14T11:52:28.448Z,1007.97
2019-02-14T11:53:29.383Z,1007.92
2019-02-14T11:54:28.430Z,1007.97
2019-02-14T11:55:28.387Z,1007.94
2019-02-14T11:56:28.458Z,1007.95
2019-02-14T11:57:28.380Z,1007.94
2019-02-14T11:58:28.373Z,1007.94
2019-02-14T11:59:28.420Z,1007.97
2019-02-14T12:00:28.336Z,1007.99
2019-02-14T12:01:28.440Z,1007.97
2019-02-14T12:02:28.312Z,1007.90
2019-02-14T12:03:28.299Z,1007.95
2019-02-14T12:04:28.287Z,1007.97
2019-02-14T12:05:28.274Z,1007.94